Disclaimer

Please do not use the information listed here in-flight or in-navigation, as they are not provided to us by the airports but are provided by volunteers, so they might be outdated.

Search


Regions


Airport information page

No radio frequency information is available.

Airport informations:
Latitude: 37° 44' 28.26" N
Longitude: 025° 41' 52.33" W
Elevation: 259 feet - 79 meters
Operating hours: Remarks
Operating agency: Civil government, landing fees and diplomatic clearance may be required
Timezone: UTC-1(0 DT) - Last Sunday in March to last Sunday in October
Fuel: Jet A1, without icing nhibitor.

Runway information:
12/30 - 8192 x 148 feet< - >2497 x 45 meters

Recent METARs:
LPPD 210200Z 34008KT 9999 FEW022 12/07 Q1021
LPPD 210230Z 33010KT 9999 FEW022 12/07 Q1021
LPPD 210300Z 33011KT 9999 FEW022 13/05 Q1021

Airport on the map: